createdAt,value
2023-04-15T00:01:34.738Z,11.86
2023-04-15T00:04:27.549Z,11.88
2023-04-15T00:07:17.650Z,11.77
2023-04-15T00:10:14.346Z,11.79
2023-04-15T00:13:19.794Z,11.98
2023-04-15T00:16:26.118Z,11.89
2023-04-15T00:19:22.313Z,12.06
2023-04-15T00:22:17.829Z,11.94
2023-04-15T00:25:12.271Z,12.10
2023-04-15T00:28:08.798Z,12.13
2023-04-15T00:31:03.173Z,12.14
2023-04-15T00:33:56.778Z,12.12
2023-04-15T00:36:51.842Z,12.10
2023-04-15T00:39:48.371Z,12.08
2023-04-15T00:42:53.766Z,12.07
2023-04-15T00:45:52.708Z,12.09
2023-04-15T00:48:44.983Z,12.06
2023-04-15T00:51:44.157Z,12.09
2023-04-15T00:54:35.550Z,12.07
2023-04-15T00:57:39.674Z,12.01
2023-04-15T01:00:36.727Z,11.94
2023-04-15T01:03:34.696Z,11.95
2023-04-15T01:06:32.885Z,11.94
2023-04-15T01:09:26.144Z,11.98
2023-04-15T01:12:18.877Z,12.09
2023-04-15T01:15:14.830Z,12.00
2023-04-15T01:18:10.961Z,12.08
2023-04-15T01:21:09.725Z,12.04
2023-04-15T01:24:08.993Z,12.09
2023-04-15T01:27:15.835Z,12.06
2023-04-15T01:30:13.912Z,12.01
2023-04-15T01:33:05.959Z,11.81
2023-04-15T01:36:07.775Z,11.93
2023-04-15T01:39:00.577Z,11.89
2023-04-15T01:41:57.587Z,11.96
2023-04-15T01:44:53.031Z,12.04
2023-04-15T01:47:48.653Z,12.03
2023-04-15T01:50:39.330Z,12.01
2023-04-15T01:53:37.856Z,11.96
2023-04-15T01:56:33.692Z,11.98
2023-04-15T01:59:24.532Z,11.89
2023-04-15T02:02:27.699Z,11.97
2023-04-15T02:05:28.785Z,12.08
2023-04-15T02:08:22.444Z,12.10
2023-04-15T02:11:13.436Z,12.09
2023-04-15T02:17:10.076Z,12.08
2023-04-15T02:20:09.802Z,12.11
2023-04-15T02:22:57.283Z,12.08
2023-04-15T02:25:53.564Z,11.93
2023-04-15T02:28:40.838Z,11.86
2023-04-15T02:31:27.638Z,11.86
2023-04-15T02:34:14.533Z,11.90
2023-04-15T02:37:06.832Z,11.94
2023-04-15T02:39:55.712Z,11.99
2023-04-15T02:42:43.047Z,11.91
2023-04-15T02:45:32.407Z,11.96
2023-04-15T02:48:22.133Z,11.96
2023-04-15T02:51:15.600Z,11.99
2023-04-15T02:54:03.700Z,11.99
2023-04-15T02:56:50.869Z,11.98
2023-04-15T02:59:37.311Z,12.00
2023-04-15T03:02:24.288Z,11.90
2023-04-15T03:05:14.207Z,12.03
2023-04-15T03:08:07.633Z,12.05
2023-04-15T03:10:55.690Z,11.60
2023-04-15T03:13:43.448Z,12.30
2023-04-15T03:16:41.422Z,12.17
2023-04-15T03:19:28.387Z,12.14
2023-04-15T03:22:15.198Z,12.20
2023-04-15T03:25:01.962Z,12.07
2023-04-15T03:27:50.250Z,12.13
2023-04-15T03:30:37.423Z,12.14
2023-04-15T03:33:24.306Z,12.21
2023-04-15T03:36:11.004Z,12.24
2023-04-15T03:38:57.985Z,12.27
2023-04-15T03:41:44.598Z,12.29
2023-04-15T03:44:32.952Z,12.33
2023-04-15T03:47:19.389Z,12.38
2023-04-15T03:50:07.389Z,12.25
2023-04-15T03:52:54.207Z,12.34
2023-04-15T03:55:41.077Z,12.29
2023-04-15T03:58:27.874Z,12.15
2023-04-15T04:01:16.625Z,12.09
2023-04-15T04:04:03.698Z,12.26
2023-04-15T04:06:50.353Z,12.42
2023-04-15T04:09:39.216Z,12.45
2023-04-15T04:12:25.962Z,12.45
2023-04-15T04:15:13.256Z,12.53
2023-04-15T04:18:01.476Z,12.39
2023-04-15T04:20:48.192Z,12.25
2023-04-15T04:23:34.955Z,12.33
2023-04-15T04:26:21.638Z,12.10
2023-04-15T04:29:08.304Z,12.13
2023-04-15T04:31:55.169Z,12.17
2023-04-15T04:34:43.098Z,12.37
2023-04-15T04:37:29.940Z,12.38
2023-04-15T04:40:17.252Z,12.34
2023-04-15T04:43:04.157Z,12.31
2023-04-15T04:45:50.742Z,12.31
2023-04-15T04:48:37.418Z,11.98
2023-04-15T04:51:26.328Z,12.18
2023-04-15T04:54:13.032Z,12.04
2023-04-15T04:56:59.520Z,12.41
2023-04-15T04:59:46.670Z,12.48
2023-04-15T05:02:33.747Z,12.19
2023-04-15T05:05:20.412Z,12.52
2023-04-15T05:08:08.918Z,12.26
2023-04-15T05:10:55.828Z,12.47
2023-04-15T05:13:42.564Z,12.41
2023-04-15T05:16:29.413Z,12.61
2023-04-15T05:19:16.168Z,12.63
2023-04-15T05:22:02.898Z,12.49
2023-04-15T05:24:51.286Z,12.71
2023-04-15T05:27:38.017Z,12.46
2023-04-15T05:30:24.733Z,12.73
2023-04-15T05:33:11.405Z,12.88
2023-04-15T05:35:58.293Z,12.45
2023-04-15T05:38:44.975Z,12.77
2023-04-15T05:41:33.158Z,12.80
2023-04-15T05:44:19.963Z,12.87
2023-04-15T05:47:08.022Z,12.64
2023-04-15T05:49:55.684Z,12.90
2023-04-15T05:52:42.196Z,12.99
2023-04-15T05:55:29.119Z,13.01
2023-04-15T05:58:17.251Z,12.91
2023-04-15T06:01:04.351Z,13.01
2023-04-15T06:03:51.763Z,12.84
2023-04-15T06:06:38.819Z,12.73
2023-04-15T06:09:25.479Z,12.94
2023-04-15T06:12:12.445Z,13.07
2023-04-15T06:15:00.545Z,13.20
2023-04-15T06:17:47.209Z,13.27
2023-04-15T06:20:34.082Z,13.29
2023-04-15T06:23:21.038Z,13.36
2023-04-15T06:26:07.655Z,13.00
2023-04-15T06:28:54.421Z,13.38
2023-04-15T06:31:42.688Z,13.16
2023-04-15T06:34:29.405Z,13.15
2023-04-15T06:37:16.687Z,13.06
2023-04-15T06:40:05.270Z,13.32
2023-04-15T06:42:51.971Z,12.86
2023-04-15T06:45:38.792Z,13.14
2023-04-15T06:48:27.587Z,13.30
2023-04-15T06:51:14.292Z,13.37
2023-04-15T06:54:01.083Z,13.14
2023-04-15T06:56:48.578Z,13.42
2023-04-15T06:59:35.176Z,12.77
2023-04-15T07:02:22.111Z,12.66
2023-04-15T07:05:10.351Z,12.98
2023-04-15T07:07:57.271Z,13.04
2023-04-15T07:10:44.023Z,13.07
2023-04-15T07:13:33.039Z,13.11
2023-04-15T07:16:19.571Z,13.23
2023-04-15T07:19:06.644Z,13.42
2023-04-15T07:21:54.553Z,13.53
2023-04-15T07:24:41.690Z,13.60
2023-04-15T07:27:31.322Z,13.25
2023-04-15T07:30:18.274Z,13.65
2023-04-15T07:33:05.069Z,13.76
2023-04-15T07:35:51.510Z,13.84
2023-04-15T07:38:39.682Z,13.98
2023-04-15T07:41:26.710Z,13.76
2023-04-15T07:44:13.345Z,13.42
2023-04-15T07:47:00.148Z,13.86
2023-04-15T07:49:47.390Z,13.96
2023-04-15T07:52:39.179Z,13.91
2023-04-15T07:55:28.256Z,14.04
2023-04-15T07:58:14.998Z,13.91
2023-04-15T08:01:02.124Z,14.18
2023-04-15T08:03:48.786Z,14.01
2023-04-15T08:06:35.381Z,14.15
2023-04-15T08:09:22.324Z,14.33
2023-04-15T08:12:13.421Z,14.31
2023-04-15T08:15:00.905Z,14.17
2023-04-15T08:17:48.400Z,14.32
2023-04-15T08:20:34.844Z,14.11
2023-04-15T08:23:21.400Z,13.87
2023-04-15T08:26:08.790Z,13.90
2023-04-15T08:28:57.482Z,13.81
2023-04-15T08:31:45.077Z,14.21
2023-04-15T08:34:32.154Z,14.13
2023-04-15T08:37:18.904Z,13.92
2023-04-15T08:40:06.870Z,13.92
2023-04-15T08:42:58.821Z,14.01
2023-04-15T08:45:48.753Z,14.38
2023-04-15T08:48:35.929Z,14.29
2023-04-15T08:51:23.911Z,13.94
2023-04-15T08:54:12.133Z,14.37
2023-04-15T08:57:08.052Z,14.35
2023-04-15T08:59:57.179Z,13.77
2023-04-15T09:02:44.509Z,13.98
2023-04-15T09:05:33.623Z,14.41
2023-04-15T09:08:19.963Z,14.33
2023-04-15T09:11:07.174Z,14.33
2023-04-15T09:13:55.318Z,14.54
2023-04-15T09:16:57.875Z,14.31
2023-04-15T09:19:44.766Z,14.26
2023-04-15T09:22:33.479Z,14.59
2023-04-15T09:25:33.492Z,14.57
2023-04-15T09:28:26.792Z,14.34
2023-04-15T09:31:15.640Z,14.45
2023-04-15T09:34:02.970Z,14.61
2023-04-15T09:36:58.499Z,14.33
2023-04-15T09:39:52.109Z,14.49
2023-04-15T09:42:38.625Z,14.56
2023-04-15T09:45:29.376Z,14.57
2023-04-15T09:48:20.970Z,14.38
2023-04-15T09:51:07.741Z,14.42
2023-04-15T09:53:56.662Z,14.33
2023-04-15T09:56:43.404Z,14.28
2023-04-15T09:59:30.106Z,14.55
2023-04-15T10:02:17.310Z,14.55
2023-04-15T10:05:06.160Z,14.30
2023-04-15T10:07:52.976Z,14.80
2023-04-15T10:10:39.497Z,14.73
2023-04-15T10:13:28.827Z,14.91
2023-04-15T10:16:17.035Z,14.71
2023-04-15T10:19:04.887Z,14.57
2023-04-15T10:21:53.759Z,14.56
2023-04-15T10:24:41.430Z,14.74
2023-04-15T10:27:29.104Z,14.55
2023-04-15T10:30:16.930Z,14.61
2023-04-15T10:33:05.475Z,14.68
2023-04-15T10:35:53.092Z,14.86
2023-04-15T10:38:43.337Z,14.65
2023-04-15T10:41:31.438Z,14.56
2023-04-15T10:44:18.243Z,14.47
2023-04-15T10:47:12.310Z,14.68
2023-04-15T10:50:00.918Z,14.73
2023-04-15T10:52:47.323Z,14.60
2023-04-15T10:55:36.024Z,14.60
2023-04-15T10:58:25.069Z,14.78
2023-04-15T11:01:11.787Z,15.07
2023-04-15T11:03:58.364Z,14.84
2023-04-15T11:06:46.004Z,14.52
2023-04-15T11:09:33.892Z,14.41
2023-04-15T11:12:21.909Z,14.83
2023-04-15T11:15:31.388Z,14.86
2023-04-15T11:18:19.577Z,14.85
2023-04-15T11:21:08.380Z,14.72
2023-04-15T11:23:55.204Z,14.79
2023-04-15T11:26:41.826Z,14.72
2023-04-15T11:29:32.530Z,14.66
2023-04-15T11:32:19.539Z,14.17
2023-04-15T11:35:06.703Z,14.66
2023-04-15T11:37:53.415Z,14.75
2023-04-15T11:40:43.830Z,14.88
2023-04-15T11:43:35.527Z,14.77
2023-04-15T11:46:31.458Z,14.86
2023-04-15T11:49:28.053Z,14.58
2023-04-15T11:52:14.598Z,14.60
2023-04-15T11:55:04.822Z,14.43
2023-04-15T11:57:51.743Z,14.40
2023-04-15T12:00:39.772Z,14.26
2023-04-15T12:03:29.516Z,14.48
2023-04-15T12:06:19.402Z,14.65
2023-04-15T12:09:10.561Z,13.89
2023-04-15T12:11:59.347Z,14.35
2023-04-15T12:14:46.287Z,14.32
2023-04-15T12:17:51.987Z,14.27
2023-04-15T12:20:47.465Z,14.50
2023-04-15T12:23:38.553Z,14.45
2023-04-15T12:26:30.159Z,14.57
2023-04-15T12:29:17.819Z,14.36
2023-04-15T12:32:09.597Z,14.43
2023-04-15T12:34:56.549Z,14.80
2023-04-15T12:37:44.491Z,15.01
2023-04-15T12:40:31.312Z,15.04
2023-04-15T12:43:18.335Z,15.02
2023-04-15T12:46:05.959Z,14.79
2023-04-15T12:48:53.451Z,14.77
2023-04-15T12:51:40.111Z,14.94
2023-04-15T12:54:29.188Z,15.09
2023-04-15T12:57:15.924Z,14.87
2023-04-15T13:00:02.745Z,14.84
2023-04-15T13:02:49.656Z,14.71
2023-04-15T13:05:37.133Z,14.86
2023-04-15T13:08:23.794Z,14.72
2023-04-15T13:11:14.446Z,14.20
2023-04-15T13:14:03.115Z,14.18
2023-04-15T13:16:49.859Z,14.46
2023-04-15T13:19:37.205Z,14.38
2023-04-15T13:22:23.983Z,14.48
2023-04-15T13:25:11.796Z,14.56
2023-04-15T13:28:01.345Z,14.66
2023-04-15T13:30:49.008Z,14.72
2023-04-15T13:33:35.619Z,14.59
2023-04-15T13:36:22.336Z,14.75
2023-04-15T13:39:09.460Z,14.77
2023-04-15T13:41:56.368Z,14.56
2023-04-15T13:44:44.279Z,14.56
2023-04-15T13:47:31.084Z,14.72
2023-04-15T13:50:18.010Z,14.80
2023-04-15T13:53:04.984Z,14.74
2023-04-15T13:55:51.844Z,14.73
2023-04-15T13:58:39.258Z,14.61
2023-04-15T14:01:27.555Z,14.59
2023-04-15T14:04:14.981Z,14.66
2023-04-15T14:07:02.796Z,14.57
2023-04-15T14:09:51.432Z,14.04
2023-04-15T14:12:38.397Z,14.36
2023-04-15T14:15:25.148Z,14.46
2023-04-15T14:18:13.206Z,14.42
2023-04-15T14:21:00.149Z,14.36
2023-04-15T14:23:46.665Z,14.09
2023-04-15T14:26:33.537Z,14.11
2023-04-15T14:29:20.400Z,13.94
2023-04-15T14:32:12.201Z,14.11
2023-04-15T14:35:00.441Z,14.09
2023-04-15T14:37:47.197Z,14.20
2023-04-15T14:40:34.672Z,14.20
2023-04-15T14:43:21.829Z,14.29
2023-04-15T14:46:08.673Z,14.29
2023-04-15T14:48:55.713Z,14.58
2023-04-15T14:51:44.139Z,14.66
2023-04-15T14:54:30.458Z,14.67
2023-04-15T14:57:17.180Z,14.50
2023-04-15T15:00:04.685Z,14.39
2023-04-15T15:02:51.473Z,14.37
2023-04-15T15:05:38.274Z,14.31
2023-04-15T15:08:26.396Z,14.40
2023-04-15T15:11:13.082Z,14.10
2023-04-15T15:13:59.700Z,14.41
2023-04-15T15:16:46.514Z,14.36
2023-04-15T15:19:34.330Z,14.36
2023-04-15T15:22:21.524Z,14.51
2023-04-15T15:25:09.932Z,14.53
2023-04-15T15:27:57.306Z,14.39
2023-04-15T15:30:44.173Z,14.54
2023-04-15T15:33:30.770Z,14.62
2023-04-15T15:36:17.643Z,14.43
2023-04-15T15:41:53.021Z,14.24
2023-04-15T15:44:39.935Z,14.41
2023-04-15T15:47:27.337Z,14.35
2023-04-15T15:50:15.185Z,14.16
2023-04-15T15:53:01.869Z,14.42
2023-04-15T15:55:49.248Z,14.48
2023-04-15T15:58:37.342Z,14.35
2023-04-15T16:01:24.153Z,14.18
2023-04-15T16:04:11.389Z,13.92
2023-04-15T16:06:58.122Z,14.13
2023-04-15T16:09:44.980Z,13.93
2023-04-15T16:12:33.854Z,13.98
2023-04-15T16:15:23.989Z,14.21
2023-04-15T16:18:10.785Z,14.26
2023-04-15T16:20:57.507Z,14.22
2023-04-15T16:23:44.209Z,14.03
2023-04-15T16:26:31.036Z,13.98
2023-04-15T16:29:17.729Z,14.20
2023-04-15T16:32:06.551Z,14.01
2023-04-15T16:34:54.069Z,13.80
2023-04-15T16:37:40.880Z,14.04
2023-04-15T16:40:27.584Z,14.09
2023-04-15T16:43:14.367Z,14.17
2023-04-15T16:46:01.345Z,14.07
2023-04-15T16:48:49.348Z,14.15
2023-04-15T16:51:36.167Z,14.19
2023-04-15T16:54:22.953Z,14.34
2023-04-15T16:57:09.770Z,14.05
2023-04-15T16:59:56.488Z,14.01
2023-04-15T17:02:43.325Z,14.14
2023-04-15T17:05:31.703Z,14.24
2023-04-15T17:08:18.169Z,14.11
2023-04-15T17:11:04.937Z,13.77
2023-04-15T17:13:52.253Z,13.86
2023-04-15T17:16:38.903Z,13.64
2023-04-15T17:19:26.887Z,13.95
2023-04-15T17:22:15.086Z,13.82
2023-04-15T17:25:01.759Z,13.76
2023-04-15T17:27:48.500Z,13.86
2023-04-15T17:30:35.480Z,13.70
2023-04-15T17:34:00.298Z,13.75
2023-04-15T17:36:28.619Z,13.95
2023-04-15T17:39:16.882Z,14.00
2023-04-15T17:42:03.640Z,13.93
2023-04-15T17:44:50.363Z,13.95
2023-04-15T17:47:37.184Z,13.88
2023-04-15T17:50:24.038Z,13.91
2023-04-15T17:53:10.890Z,13.89
2023-04-15T17:55:59.335Z,13.89
2023-04-15T17:58:45.949Z,13.78
2023-04-15T18:01:32.782Z,13.77
2023-04-15T18:04:19.622Z,13.76
2023-04-15T18:07:06.290Z,13.72
2023-04-15T18:09:55.968Z,13.30
2023-04-15T18:12:43.757Z,13.73
2023-04-15T18:15:30.760Z,13.72
2023-04-15T18:18:17.392Z,13.66
2023-04-15T18:21:04.197Z,13.72
2023-04-15T18:23:50.888Z,13.80
2023-04-15T18:26:37.684Z,13.61
2023-04-15T18:29:27.490Z,13.61
2023-04-15T18:32:15.763Z,13.59
2023-04-15T18:35:04.518Z,13.82
2023-04-15T18:37:54.146Z,13.86
2023-04-15T18:40:42.516Z,13.75
2023-04-15T18:43:29.669Z,13.67
2023-04-15T18:46:19.073Z,13.44
2023-04-15T18:49:06.437Z,13.66
2023-04-15T18:51:53.346Z,13.73
2023-04-15T18:54:40.288Z,13.61
2023-04-15T18:57:33.214Z,13.51
2023-04-15T19:00:21.889Z,13.74
2023-04-15T19:03:11.733Z,13.76
2023-04-15T19:05:59.660Z,13.75
2023-04-15T19:08:49.615Z,13.58
2023-04-15T19:11:45.794Z,13.39
2023-04-15T19:14:33.891Z,13.41
2023-04-15T19:17:23.981Z,13.62
2023-04-15T19:20:15.595Z,13.48
2023-04-15T19:23:06.351Z,13.54
2023-04-15T19:25:54.708Z,13.50
2023-04-15T19:28:42.998Z,13.54
2023-04-15T19:31:37.960Z,13.58
2023-04-15T19:34:26.603Z,13.21
2023-04-15T19:37:17.491Z,13.36
2023-04-15T19:40:06.532Z,13.64
2023-04-15T19:42:53.718Z,13.43
2023-04-15T19:45:46.042Z,13.37
2023-04-15T19:48:33.167Z,13.48
2023-04-15T19:51:21.000Z,13.51
2023-04-15T19:54:13.338Z,13.29
2023-04-15T19:57:15.560Z,13.51
2023-04-15T20:00:11.066Z,13.56
2023-04-15T20:03:05.334Z,13.13
2023-04-15T20:05:56.020Z,13.33
2023-04-15T20:08:44.544Z,13.32
2023-04-15T20:12:05.982Z,13.46
2023-04-15T20:14:43.990Z,13.60
2023-04-15T20:17:34.806Z,13.53
2023-04-15T20:20:23.543Z,13.58
2023-04-15T20:23:14.812Z,13.47
2023-04-15T20:26:03.698Z,13.57
2023-04-15T20:29:08.756Z,13.42
2023-04-15T20:31:57.244Z,13.40
2023-04-15T20:34:44.397Z,13.35
2023-04-15T20:37:40.676Z,13.41
2023-04-15T20:40:29.149Z,13.40
2023-04-15T20:43:16.528Z,13.14
2023-04-15T20:46:17.891Z,13.25
2023-04-15T20:49:07.734Z,13.36
2023-04-15T20:51:54.273Z,12.99
2023-04-15T20:54:41.157Z,13.36
2023-04-15T20:57:30.233Z,13.37
2023-04-15T21:00:17.353Z,13.23
2023-04-15T21:03:10.057Z,13.43
2023-04-15T21:05:58.990Z,13.41
2023-04-15T21:08:46.100Z,13.18
2023-04-15T21:11:53.222Z,13.26
2023-04-15T21:14:40.463Z,13.29
2023-04-15T21:17:27.383Z,13.37
2023-04-15T21:20:16.000Z,13.44
2023-04-15T21:23:02.581Z,13.38
2023-04-15T21:25:49.192Z,13.35
2023-04-15T21:28:37.214Z,13.25
2023-04-15T21:31:24.149Z,13.17
2023-04-15T21:34:11.323Z,13.43
2023-04-15T21:36:59.237Z,13.38
2023-04-15T21:39:45.948Z,13.29
2023-04-15T21:42:32.587Z,13.50
2023-04-15T21:45:19.475Z,13.38
2023-04-15T21:48:08.222Z,13.31
2023-04-15T21:50:59.853Z,13.48
2023-04-15T21:53:47.841Z,13.49
2023-04-15T21:56:34.637Z,13.33
2023-04-15T21:59:21.655Z,13.36
2023-04-15T22:02:08.436Z,13.33
2023-04-15T22:04:55.065Z,13.37
2023-04-15T22:07:42.353Z,13.37
2023-04-15T22:10:30.269Z,13.49
2023-04-15T22:13:18.156Z,13.35
2023-04-15T22:16:04.780Z,13.47
2023-04-15T22:18:51.555Z,13.55
2023-04-15T22:21:38.230Z,13.61
2023-04-15T22:24:39.341Z,13.50
2023-04-15T22:27:28.808Z,13.40
2023-04-15T22:30:15.824Z,13.54
2023-04-15T22:33:02.627Z,13.48
2023-04-15T22:35:49.221Z,13.28
2023-04-15T22:38:36.956Z,13.32
2023-04-15T22:41:23.599Z,13.56
2023-04-15T22:44:11.865Z,13.48
2023-04-15T22:46:58.643Z,13.59
2023-04-15T22:49:46.125Z,13.49
2023-04-15T22:52:32.608Z,13.45
2023-04-15T22:55:19.324Z,13.67
2023-04-15T22:58:06.089Z,13.51
2023-04-15T23:00:54.177Z,13.54
2023-04-15T23:03:55.877Z,13.37
2023-04-15T23:06:45.271Z,13.48
2023-04-15T23:09:31.972Z,13.51
2023-04-15T23:12:18.568Z,13.47
2023-04-15T23:15:05.897Z,13.59
2023-04-15T23:17:54.897Z,13.58
2023-04-15T23:20:43.191Z,13.55
2023-04-15T23:23:30.528Z,13.51
2023-04-15T23:26:17.573Z,13.47
2023-04-15T23:29:04.363Z,13.24
2023-04-15T23:31:51.161Z,13.54
2023-04-15T23:34:39.212Z,13.51
2023-04-15T23:37:26.007Z,13.63
2023-04-15T23:40:13.787Z,13.47
2023-04-15T23:43:00.517Z,13.33
2023-04-15T23:45:47.993Z,13.51
2023-04-15T23:48:34.661Z,13.49
2023-04-15T23:51:22.898Z,13.63
2023-04-15T23:54:09.782Z,13.58
2023-04-15T23:56:56.561Z,13.53
2023-04-15T23:59:43.578Z,13.42
